sensor_id;sensor_type;location;lat;lon;timestamp;P1;durP1;ratioP1;P2;durP2;ratioP2
69047;SDS011;56119;50.118;8.642;2023-02-19T00:00:01;6.20;;;5.50;;
69047;SDS011;56119;50.118;8.642;2023-02-19T00:02:27;7.43;;;5.65;;
69047;SDS011;56119;50.118;8.642;2023-02-19T00:04:53;6.25;;;4.93;;
69047;SDS011;56119;50.118;8.642;2023-02-19T00:07:19;7.00;;;5.35;;
69047;SDS011;56119;50.118;8.642;2023-02-19T00:09:45;5.97;;;5.22;;
69047;SDS011;56119;50.118;8.642;2023-02-19T00:12:11;7.88;;;5.50;;
69047;SDS011;56119;50.118;8.642;2023-02-19T00:14:37;7.22;;;4.82;;
69047;SDS011;56119;50.118;8.642;2023-02-19T00:17:03;7.15;;;5.05;;
69047;SDS011;56119;50.118;8.642;2023-02-19T00:19:29;5.82;;;4.93;;
69047;SDS011;56119;50.118;8.642;2023-02-19T00:21:55;7.13;;;5.30;;
69047;SDS011;56119;50.118;8.642;2023-02-19T00:24:21;7.13;;;5.53;;
69047;SDS011;56119;50.118;8.642;2023-02-19T00:26:47;7.80;;;5.55;;
69047;SDS011;56119;50.118;8.642;2023-02-19T00:29:14;6.85;;;5.07;;
69047;SDS011;56119;50.118;8.642;2023-02-19T00:31:40;6.88;;;4.85;;
69047;SDS011;56119;50.118;8.642;2023-02-19T00:34:08;5.82;;;5.22;;
69047;SDS011;56119;50.118;8.642;2023-02-19T00:36:35;7.22;;;5.43;;
69047;SDS011;56119;50.118;8.642;2023-02-19T00:39:02;6.30;;;5.15;;
69047;SDS011;56119;50.118;8.642;2023-02-19T00:41:28;7.20;;;5.43;;
69047;SDS011;56119;50.118;8.642;2023-02-19T00:43:58;6.68;;;5.95;;
69047;SDS011;56119;50.118;8.642;2023-02-19T00:46:28;9.25;;;5.63;;
69047;SDS011;56119;50.118;8.642;2023-02-19T00:48:54;8.13;;;5.95;;
69047;SDS011;56119;50.118;8.642;2023-02-19T00:51:21;6.88;;;5.38;;
69047;SDS011;56119;50.118;8.642;2023-02-19T00:53:47;6.63;;;5.90;;
69047;SDS011;56119;50.118;8.642;2023-02-19T00:56:14;8.90;;;5.63;;
69047;SDS011;56119;50.118;8.642;2023-02-19T00:58:40;9.35;;;6.10;;
69047;SDS011;56119;50.118;8.642;2023-02-19T01:01:06;8.30;;;6.10;;
69047;SDS011;56119;50.118;8.642;2023-02-19T01:03:33;6.93;;;5.78;;
69047;SDS011;56119;50.118;8.642;2023-02-19T01:05:59;7.18;;;6.00;;
69047;SDS011;56119;50.118;8.642;2023-02-19T01:08:25;7.28;;;5.95;;
69047;SDS011;56119;50.118;8.642;2023-02-19T01:10:51;6.38;;;5.70;;
69047;SDS011;56119;50.118;8.642;2023-02-19T01:13:18;8.68;;;6.22;;
69047;SDS011;56119;50.118;8.642;2023-02-19T01:15:44;7.38;;;5.60;;
69047;SDS011;56119;50.118;8.642;2023-02-19T01:18:10;8.02;;;6.28;;
69047;SDS011;56119;50.118;8.642;2023-02-19T01:20:40;7.25;;;6.07;;
69047;SDS011;56119;50.118;8.642;2023-02-19T01:23:07;6.47;;;5.82;;
69047;SDS011;56119;50.118;8.642;2023-02-19T01:25:33;7.38;;;5.78;;
69047;SDS011;56119;50.118;8.642;2023-02-19T01:27:59;7.65;;;5.82;;
69047;SDS011;56119;50.118;8.642;2023-02-19T01:30:25;7.38;;;5.45;;
69047;SDS011;56119;50.118;8.642;2023-02-19T01:32:51;6.60;;;5.78;;
69047;SDS011;56119;50.118;8.642;2023-02-19T01:35:17;8.00;;;6.05;;
69047;SDS011;56119;50.118;8.642;2023-02-19T01:37:42;6.45;;;5.60;;
69047;SDS011;56119;50.118;8.642;2023-02-19T01:40:08;6.25;;;4.90;;
69047;SDS011;56119;50.118;8.642;2023-02-19T01:42:34;6.88;;;5.75;;
69047;SDS011;56119;50.118;8.642;2023-02-19T01:45:14;6.20;;;5.50;;
69047;SDS011;56119;50.118;8.642;2023-02-19T01:47:42;7.30;;;4.95;;
69047;SDS011;56119;50.118;8.642;2023-02-19T01:50:08;6.25;;;5.03;;
69047;SDS011;56119;50.118;8.642;2023-02-19T01:52:34;5.93;;;5.18;;
69047;SDS011;56119;50.118;8.642;2023-02-19T01:55:02;5.55;;;4.85;;
69047;SDS011;56119;50.118;8.642;2023-02-19T01:57:30;6.60;;;5.13;;
69047;SDS011;56119;50.118;8.642;2023-02-19T02:00:00;6.20;;;4.82;;
69047;SDS011;56119;50.118;8.642;2023-02-19T02:02:28;7.15;;;4.22;;
69047;SDS011;56119;50.118;8.642;2023-02-19T02:04:57;5.53;;;4.82;;
69047;SDS011;56119;50.118;8.642;2023-02-19T02:07:24;6.90;;;4.63;;
69047;SDS011;56119;50.118;8.642;2023-02-19T02:10:12;5.97;;;4.75;;
69047;SDS011;56119;50.118;8.642;2023-02-19T02:12:44;6.53;;;4.65;;
69047;SDS011;56119;50.118;8.642;2023-02-19T02:15:10;6.50;;;4.45;;
69047;SDS011;56119;50.118;8.642;2023-02-19T02:17:44;5.82;;;4.43;;
69047;SDS011;56119;50.118;8.642;2023-02-19T02:22:45;5.80;;;5.20;;
69047;SDS011;56119;50.118;8.642;2023-02-19T02:35:47;5.20;;;4.28;;
69047;SDS011;56119;50.118;8.642;2023-02-19T02:38:10;7.35;;;4.47;;
69047;SDS011;56119;50.118;8.642;2023-02-19T02:40:38;5.47;;;4.55;;
69047;SDS011;56119;50.118;8.642;2023-02-19T02:43:05;5.70;;;4.55;;
69047;SDS011;56119;50.118;8.642;2023-02-19T02:45:32;4.90;;;4.40;;
69047;SDS011;56119;50.118;8.642;2023-02-19T02:48:12;4.57;;;3.97;;
69047;SDS011;56119;50.118;8.642;2023-02-19T02:50:41;5.75;;;3.80;;
69047;SDS011;56119;50.118;8.642;2023-02-19T02:53:10;7.75;;;4.13;;
69047;SDS011;56119;50.118;8.642;2023-02-19T02:55:56;5.47;;;3.90;;
69047;SDS011;56119;50.118;8.642;2023-02-19T02:58:24;5.38;;;3.72;;
69047;SDS011;56119;50.118;8.642;2023-02-19T03:00:52;4.35;;;3.83;;
69047;SDS011;56119;50.118;8.642;2023-02-19T03:03:54;4.63;;;3.78;;
69047;SDS011;56119;50.118;8.642;2023-02-19T03:06:20;5.07;;;3.85;;
69047;SDS011;56119;50.118;8.642;2023-02-19T03:08:49;4.50;;;3.88;;
69047;SDS011;56119;50.118;8.642;2023-02-19T03:11:16;4.72;;;4.00;;
69047;SDS011;56119;50.118;8.642;2023-02-19T03:14:15;4.88;;;4.25;;
69047;SDS011;56119;50.118;8.642;2023-02-19T03:17:04;5.18;;;3.90;;
69047;SDS011;56119;50.118;8.642;2023-02-19T03:19:53;4.97;;;4.30;;
69047;SDS011;56119;50.118;8.642;2023-02-19T03:22:21;4.88;;;4.38;;
69047;SDS011;56119;50.118;8.642;2023-02-19T03:24:49;7.13;;;4.47;;
69047;SDS011;56119;50.118;8.642;2023-02-19T03:27:43;6.65;;;4.45;;
69047;SDS011;56119;50.118;8.642;2023-02-19T03:30:16;6.13;;;4.18;;
69047;SDS011;56119;50.118;8.642;2023-02-19T03:32:47;5.78;;;4.43;;
69047;SDS011;56119;50.118;8.642;2023-02-19T03:35:21;4.75;;;3.85;;
69047;SDS011;56119;50.118;8.642;2023-02-19T03:40:14;6.13;;;4.20;;
69047;SDS011;56119;50.118;8.642;2023-02-19T03:42:47;4.60;;;3.70;;
69047;SDS011;56119;50.118;8.642;2023-02-19T03:45:25;5.40;;;3.30;;
69047;SDS011;56119;50.118;8.642;2023-02-19T03:52:54;4.55;;;3.85;;
69047;SDS011;56119;50.118;8.642;2023-02-19T03:55:43;4.03;;;3.38;;
69047;SDS011;56119;50.118;8.642;2023-02-19T03:59:00;3.55;;;3.03;;
69047;SDS011;56119;50.118;8.642;2023-02-19T04:06:03;3.67;;;2.95;;
69047;SDS011;56119;50.118;8.642;2023-02-19T04:08:30;3.53;;;2.75;;
69047;SDS011;56119;50.118;8.642;2023-02-19T04:10:58;4.68;;;3.08;;
69047;SDS011;56119;50.118;8.642;2023-02-19T04:13:46;4.32;;;3.47;;
69047;SDS011;56119;50.118;8.642;2023-02-19T04:16:16;3.22;;;2.90;;
69047;SDS011;56119;50.118;8.642;2023-02-19T04:18:45;3.75;;;3.17;;
69047;SDS011;56119;50.118;8.642;2023-02-19T04:21:11;5.00;;;3.30;;
69047;SDS011;56119;50.118;8.642;2023-02-19T04:23:39;3.47;;;3.08;;
69047;SDS011;56119;50.118;8.642;2023-02-19T04:26:07;3.88;;;3.47;;
69047;SDS011;56119;50.118;8.642;2023-02-19T04:28:34;3.72;;;3.20;;
69047;SDS011;56119;50.118;8.642;2023-02-19T04:31:00;3.90;;;3.40;;
69047;SDS011;56119;50.118;8.642;2023-02-19T04:33:26;4.40;;;2.90;;
69047;SDS011;56119;50.118;8.642;2023-02-19T04:35:52;4.68;;;3.33;;
69047;SDS011;56119;50.118;8.642;2023-02-19T04:38:18;3.00;;;2.67;;
69047;SDS011;56119;50.118;8.642;2023-02-19T04:40:44;2.95;;;2.63;;
69047;SDS011;56119;50.118;8.642;2023-02-19T04:43:10;3.15;;;2.83;;
69047;SDS011;56119;50.118;8.642;2023-02-19T04:45:37;2.53;;;2.30;;
69047;SDS011;56119;50.118;8.642;2023-02-19T04:48:03;2.05;;;1.80;;
69047;SDS011;56119;50.118;8.642;2023-02-19T04:50:29;2.95;;;2.17;;
69047;SDS011;56119;50.118;8.642;2023-02-19T04:52:55;3.60;;;1.90;;
69047;SDS011;56119;50.118;8.642;2023-02-19T04:55:21;2.40;;;1.63;;
69047;SDS011;56119;50.118;8.642;2023-02-19T04:57:47;3.78;;;1.50;;
69047;SDS011;56119;50.118;8.642;2023-02-19T05:00:13;2.75;;;1.23;;
69047;SDS011;56119;50.118;8.642;2023-02-19T05:02:39;1.10;;;1.00;;
69047;SDS011;56119;50.118;8.642;2023-02-19T05:05:06;1.50;;;1.13;;
69047;SDS011;56119;50.118;8.642;2023-02-19T05:07:32;1.17;;;0.95;;
69047;SDS011;56119;50.118;8.642;2023-02-19T05:09:58;1.15;;;0.90;;
69047;SDS011;56119;50.118;8.642;2023-02-19T05:12:24;2.50;;;1.30;;
69047;SDS011;56119;50.118;8.642;2023-02-19T05:14:50;2.05;;;0.90;;
69047;SDS011;56119;50.118;8.642;2023-02-19T05:17:16;1.52;;;1.15;;
69047;SDS011;56119;50.118;8.642;2023-02-19T05:19:42;1.50;;;1.20;;
69047;SDS011;56119;50.118;8.642;2023-02-19T05:22:08;1.88;;;1.60;;
69047;SDS011;56119;50.118;8.642;2023-02-19T05:24:34;2.83;;;1.02;;
69047;SDS011;56119;50.118;8.642;2023-02-19T05:27:00;1.98;;;1.00;;
69047;SDS011;56119;50.118;8.642;2023-02-19T05:29:26;0.90;;;0.80;;
69047;SDS011;56119;50.118;8.642;2023-02-19T05:31:52;1.20;;;1.00;;
69047;SDS011;56119;50.118;8.642;2023-02-19T05:34:18;2.88;;;1.00;;
69047;SDS011;56119;50.118;8.642;2023-02-19T05:36:44;1.40;;;1.30;;
69047;SDS011;56119;50.118;8.642;2023-02-19T05:39:10;1.83;;;1.23;;
69047;SDS011;56119;50.118;8.642;2023-02-19T05:41:36;1.00;;;0.90;;
69047;SDS011;56119;50.118;8.642;2023-02-19T05:44:03;1.58;;;1.15;;
69047;SDS011;56119;50.118;8.642;2023-02-19T05:46:29;1.05;;;1.00;;
69047;SDS011;56119;50.118;8.642;2023-02-19T05:48:57;1.92;;;0.80;;
69047;SDS011;56119;50.118;8.642;2023-02-19T05:51:24;1.05;;;0.70;;
69047;SDS011;56119;50.118;8.642;2023-02-19T05:53:50;1.23;;;0.85;;
69047;SDS011;56119;50.118;8.642;2023-02-19T05:56:39;1.17;;;0.70;;
69047;SDS011;56119;50.118;8.642;2023-02-19T05:59:19;1.45;;;1.00;;
69047;SDS011;56119;50.118;8.642;2023-02-19T06:01:45;1.38;;;0.85;;
69047;SDS011;56119;50.118;8.642;2023-02-19T06:04:12;0.73;;;0.63;;
69047;SDS011;56119;50.118;8.642;2023-02-19T06:06:39;0.60;;;0.60;;
69047;SDS011;56119;50.118;8.642;2023-02-19T06:09:08;0.70;;;0.70;;
69047;SDS011;56119;50.118;8.642;2023-02-19T06:11:34;1.10;;;0.90;;
69047;SDS011;56119;50.118;8.642;2023-02-19T06:14:00;2.67;;;0.82;;
69047;SDS011;56119;50.118;8.642;2023-02-19T06:16:26;1.42;;;0.80;;
69047;SDS011;56119;50.118;8.642;2023-02-19T06:18:52;1.42;;;0.70;;
69047;SDS011;56119;50.118;8.642;2023-02-19T06:21:18;1.52;;;0.82;;
69047;SDS011;56119;50.118;8.642;2023-02-19T06:23:44;1.35;;;0.82;;
69047;SDS011;56119;50.118;8.642;2023-02-19T06:26:12;0.95;;;0.80;;
69047;SDS011;56119;50.118;8.642;2023-02-19T06:28:38;0.80;;;0.70;;
69047;SDS011;56119;50.118;8.642;2023-02-19T06:31:04;2.97;;;0.80;;
69047;SDS011;56119;50.118;8.642;2023-02-19T06:33:31;2.00;;;0.80;;
69047;SDS011;56119;50.118;8.642;2023-02-19T06:36:00;1.30;;;1.00;;
69047;SDS011;56119;50.118;8.642;2023-02-19T06:38:27;1.80;;;1.10;;
69047;SDS011;56119;50.118;8.642;2023-02-19T06:40:53;2.08;;;0.88;;
69047;SDS011;56119;50.118;8.642;2023-02-19T06:43:19;1.67;;;1.15;;
69047;SDS011;56119;50.118;8.642;2023-02-19T06:45:45;2.00;;;1.02;;
69047;SDS011;56119;50.118;8.642;2023-02-19T06:48:11;0.70;;;0.70;;
69047;SDS011;56119;50.118;8.642;2023-02-19T06:50:37;2.10;;;1.25;;
69047;SDS011;56119;50.118;8.642;2023-02-19T06:53:03;3.55;;;1.55;;
69047;SDS011;56119;50.118;8.642;2023-02-19T06:55:30;1.98;;;1.10;;
69047;SDS011;56119;50.118;8.642;2023-02-19T06:57:56;1.83;;;1.02;;
69047;SDS011;56119;50.118;8.642;2023-02-19T07:00:22;1.52;;;0.90;;
69047;SDS011;56119;50.118;8.642;2023-02-19T07:02:48;2.17;;;1.02;;
69047;SDS011;56119;50.118;8.642;2023-02-19T07:05:20;2.70;;;1.27;;
69047;SDS011;56119;50.118;8.642;2023-02-19T07:07:46;2.45;;;1.15;;
69047;SDS011;56119;50.118;8.642;2023-02-19T07:10:15;2.60;;;0.93;;
69047;SDS011;56119;50.118;8.642;2023-02-19T07:12:41;3.03;;;0.95;;
69047;SDS011;56119;50.118;8.642;2023-02-19T07:15:08;2.15;;;1.00;;
69047;SDS011;56119;50.118;8.642;2023-02-19T07:17:34;3.40;;;1.35;;
69047;SDS011;56119;50.118;8.642;2023-02-19T07:20:00;2.53;;;1.08;;
69047;SDS011;56119;50.118;8.642;2023-02-19T07:22:26;2.95;;;1.20;;
69047;SDS011;56119;50.118;8.642;2023-02-19T07:24:52;2.30;;;1.00;;
69047;SDS011;56119;50.118;8.642;2023-02-19T07:27:18;1.80;;;0.90;;
69047;SDS011;56119;50.118;8.642;2023-02-19T07:29:44;2.10;;;1.08;;
69047;SDS011;56119;50.118;8.642;2023-02-19T07:32:10;2.15;;;1.10;;
69047;SDS011;56119;50.118;8.642;2023-02-19T07:34:36;2.25;;;0.90;;
69047;SDS011;56119;50.118;8.642;2023-02-19T07:37:02;2.50;;;1.08;;
69047;SDS011;56119;50.118;8.642;2023-02-19T07:39:29;2.55;;;1.20;;
69047;SDS011;56119;50.118;8.642;2023-02-19T07:41:56;1.65;;;1.08;;
69047;SDS011;56119;50.118;8.642;2023-02-19T07:44:22;2.58;;;1.00;;
69047;SDS011;56119;50.118;8.642;2023-02-19T07:46:48;2.40;;;1.00;;
69047;SDS011;56119;50.118;8.642;2023-02-19T07:49:14;3.33;;;0.90;;
69047;SDS011;56119;50.118;8.642;2023-02-19T07:51:40;4.40;;;1.35;;
69047;SDS011;56119;50.118;8.642;2023-02-19T07:54:07;3.03;;;1.20;;
69047;SDS011;56119;50.118;8.642;2023-02-19T07:56:33;4.50;;;1.02;;
69047;SDS011;56119;50.118;8.642;2023-02-19T07:58:59;1.92;;;1.05;;
69047;SDS011;56119;50.118;8.642;2023-02-19T08:01:25;2.70;;;1.10;;
69047;SDS011;56119;50.118;8.642;2023-02-19T08:04:11;3.78;;;1.00;;
69047;SDS011;56119;50.118;8.642;2023-02-19T08:06:37;3.10;;;1.00;;
69047;SDS011;56119;50.118;8.642;2023-02-19T08:09:04;3.25;;;1.10;;
69047;SDS011;56119;50.118;8.642;2023-02-19T08:11:30;4.15;;;1.10;;
69047;SDS011;56119;50.118;8.642;2023-02-19T08:14:15;1.83;;;1.27;;
69047;SDS011;56119;50.118;8.642;2023-02-19T08:16:50;1.85;;;1.13;;
69047;SDS011;56119;50.118;8.642;2023-02-19T08:19:16;3.33;;;1.05;;
69047;SDS011;56119;50.118;8.642;2023-02-19T08:21:42;4.85;;;1.27;;
69047;SDS011;56119;50.118;8.642;2023-02-19T08:24:08;2.63;;;1.15;;
69047;SDS011;56119;50.118;8.642;2023-02-19T08:26:34;3.95;;;1.33;;
69047;SDS011;56119;50.118;8.642;2023-02-19T08:29:01;6.07;;;1.40;;
69047;SDS011;56119;50.118;8.642;2023-02-19T08:31:27;2.50;;;1.20;;
69047;SDS011;56119;50.118;8.642;2023-02-19T08:33:53;3.28;;;1.63;;
69047;SDS011;56119;50.118;8.642;2023-02-19T08:36:19;5.63;;;1.77;;
69047;SDS011;56119;50.118;8.642;2023-02-19T08:38:45;6.05;;;1.80;;
69047;SDS011;56119;50.118;8.642;2023-02-19T08:41:11;5.57;;;2.10;;
69047;SDS011;56119;50.118;8.642;2023-02-19T08:43:38;5.85;;;1.60;;
69047;SDS011;56119;50.118;8.642;2023-02-19T08:46:04;6.70;;;2.00;;
69047;SDS011;56119;50.118;8.642;2023-02-19T08:48:31;5.20;;;2.42;;
69047;SDS011;56119;50.118;8.642;2023-02-19T08:50:58;3.90;;;1.92;;
69047;SDS011;56119;50.118;8.642;2023-02-19T08:53:24;6.20;;;2.70;;
69047;SDS011;56119;50.118;8.642;2023-02-19T08:55:50;5.18;;;2.10;;
69047;SDS011;56119;50.118;8.642;2023-02-19T08:58:17;5.47;;;2.08;;
69047;SDS011;56119;50.118;8.642;2023-02-19T09:00:43;6.68;;;2.90;;
69047;SDS011;56119;50.118;8.642;2023-02-19T09:03:09;6.57;;;1.90;;
69047;SDS011;56119;50.118;8.642;2023-02-19T09:05:35;4.70;;;1.75;;
69047;SDS011;56119;50.118;8.642;2023-02-19T09:08:02;3.47;;;1.85;;
69047;SDS011;56119;50.118;8.642;2023-02-19T09:10:28;5.93;;;1.90;;
69047;SDS011;56119;50.118;8.642;2023-02-19T09:12:54;3.53;;;1.83;;
69047;SDS011;56119;50.118;8.642;2023-02-19T09:15:20;5.40;;;1.88;;
69047;SDS011;56119;50.118;8.642;2023-02-19T09:17:50;5.55;;;2.05;;
69047;SDS011;56119;50.118;8.642;2023-02-19T09:20:16;6.50;;;2.35;;
69047;SDS011;56119;50.118;8.642;2023-02-19T09:22:42;5.93;;;2.05;;
69047;SDS011;56119;50.118;8.642;2023-02-19T09:25:08;5.75;;;1.70;;
69047;SDS011;56119;50.118;8.642;2023-02-19T09:27:34;6.93;;;2.20;;
69047;SDS011;56119;50.118;8.642;2023-02-19T09:30:00;6.93;;;2.40;;
69047;SDS011;56119;50.118;8.642;2023-02-19T09:32:28;6.15;;;2.33;;
69047;SDS011;56119;50.118;8.642;2023-02-19T09:34:54;8.57;;;2.40;;
69047;SDS011;56119;50.118;8.642;2023-02-19T09:37:24;5.22;;;2.03;;
69047;SDS011;56119;50.118;8.642;2023-02-19T09:39:50;5.15;;;1.90;;
69047;SDS011;56119;50.118;8.642;2023-02-19T09:42:17;3.65;;;1.95;;
69047;SDS011;56119;50.118;8.642;2023-02-19T09:44:45;3.70;;;2.00;;
69047;SDS011;56119;50.118;8.642;2023-02-19T09:47:19;7.57;;;2.30;;
69047;SDS011;56119;50.118;8.642;2023-02-19T09:49:46;4.45;;;1.90;;
69047;SDS011;56119;50.118;8.642;2023-02-19T09:52:23;6.15;;;2.17;;
69047;SDS011;56119;50.118;8.642;2023-02-19T09:54:51;5.05;;;1.95;;
69047;SDS011;56119;50.118;8.642;2023-02-19T09:57:21;5.53;;;2.05;;
69047;SDS011;56119;50.118;8.642;2023-02-19T09:59:49;5.45;;;2.72;;
69047;SDS011;56119;50.118;8.642;2023-02-19T10:02:18;5.32;;;2.30;;
69047;SDS011;56119;50.118;8.642;2023-02-19T10:04:45;9.60;;;4.07;;
69047;SDS011;56119;50.118;8.642;2023-02-19T10:07:12;10.85;;;5.57;;
69047;SDS011;56119;50.118;8.642;2023-02-19T10:09:38;6.10;;;2.22;;
69047;SDS011;56119;50.118;8.642;2023-02-19T10:12:11;6.43;;;2.90;;
69047;SDS011;56119;50.118;8.642;2023-02-19T10:14:40;6.47;;;2.35;;
69047;SDS011;56119;50.118;8.642;2023-02-19T10:17:07;4.22;;;2.22;;
69047;SDS011;56119;50.118;8.642;2023-02-19T10:19:38;6.65;;;2.85;;
69047;SDS011;56119;50.118;8.642;2023-02-19T10:22:04;9.43;;;3.20;;
69047;SDS011;56119;50.118;8.642;2023-02-19T10:24:30;6.93;;;3.50;;
69047;SDS011;56119;50.118;8.642;2023-02-19T10:26:56;4.95;;;2.92;;
69047;SDS011;56119;50.118;8.642;2023-02-19T10:29:22;11.77;;;3.95;;
69047;SDS011;56119;50.118;8.642;2023-02-19T10:31:48;8.07;;;3.50;;
69047;SDS011;56119;50.118;8.642;2023-02-19T10:34:34;5.15;;;3.80;;
69047;SDS011;56119;50.118;8.642;2023-02-19T10:37:01;7.38;;;3.38;;
69047;SDS011;56119;50.118;8.642;2023-02-19T10:39:34;6.55;;;3.33;;
69047;SDS011;56119;50.118;8.642;2023-02-19T10:42:03;6.82;;;3.55;;
69047;SDS011;56119;50.118;8.642;2023-02-19T10:44:32;8.80;;;3.42;;
69047;SDS011;56119;50.118;8.642;2023-02-19T10:47:00;10.63;;;4.00;;
69047;SDS011;56119;50.118;8.642;2023-02-19T10:49:38;8.75;;;3.95;;
69047;SDS011;56119;50.118;8.642;2023-02-19T10:52:26;9.50;;;4.00;;
69047;SDS011;56119;50.118;8.642;2023-02-19T10:55:01;10.70;;;4.20;;
69047;SDS011;56119;50.118;8.642;2023-02-19T10:57:39;7.40;;;3.20;;
69047;SDS011;56119;50.118;8.642;2023-02-19T11:02:40;9.43;;;3.47;;
69047;SDS011;56119;50.118;8.642;2023-02-19T11:07:36;7.78;;;2.95;;
69047;SDS011;56119;50.118;8.642;2023-02-19T11:10:03;8.43;;;3.35;;
69047;SDS011;56119;50.118;8.642;2023-02-19T11:12:31;6.65;;;3.30;;
69047;SDS011;56119;50.118;8.642;2023-02-19T11:15:12;7.45;;;3.47;;
69047;SDS011;56119;50.118;8.642;2023-02-19T11:17:44;6.22;;;3.20;;
69047;SDS011;56119;50.118;8.642;2023-02-19T11:20:14;8.02;;;3.17;;
69047;SDS011;56119;50.118;8.642;2023-02-19T11:22:42;8.52;;;3.28;;
69047;SDS011;56119;50.118;8.642;2023-02-19T11:32:56;5.88;;;2.67;;
69047;SDS011;56119;50.118;8.642;2023-02-19T11:35:22;9.05;;;3.20;;
69047;SDS011;56119;50.118;8.642;2023-02-19T11:37:58;10.57;;;3.28;;
69047;SDS011;56119;50.118;8.642;2023-02-19T11:43:08;6.50;;;2.70;;
69047;SDS011;56119;50.118;8.642;2023-02-19T11:45:46;9.85;;;4.38;;
69047;SDS011;56119;50.118;8.642;2023-02-19T11:53:30;7.90;;;3.03;;
69047;SDS011;56119;50.118;8.642;2023-02-19T11:58:38;7.88;;;3.20;;
69047;SDS011;56119;50.118;8.642;2023-02-19T12:03:39;7.45;;;3.42;;
69047;SDS011;56119;50.118;8.642;2023-02-19T12:10:10;8.95;;;4.40;;
69047;SDS011;56119;50.118;8.642;2023-02-19T12:17:03;5.85;;;3.42;;
69047;SDS011;56119;50.118;8.642;2023-02-19T12:37:21;7.50;;;3.20;;
69047;SDS011;56119;50.118;8.642;2023-02-19T12:39:55;7.57;;;3.45;;
69047;SDS011;56119;50.118;8.642;2023-02-19T12:47:59;6.63;;;3.25;;
69047;SDS011;56119;50.118;8.642;2023-02-19T12:50:27;5.53;;;2.60;;
69047;SDS011;56119;50.118;8.642;2023-02-19T12:53:17;5.38;;;3.10;;
69047;SDS011;56119;50.118;8.642;2023-02-19T12:55:43;5.18;;;2.80;;
69047;SDS011;56119;50.118;8.642;2023-02-19T12:58:12;6.60;;;3.28;;
69047;SDS011;56119;50.118;8.642;2023-02-19T13:00:44;6.50;;;2.70;;
69047;SDS011;56119;50.118;8.642;2023-02-19T13:11:28;6.65;;;3.03;;
69047;SDS011;56119;50.118;8.642;2023-02-19T13:13:57;4.72;;;2.90;;
69047;SDS011;56119;50.118;8.642;2023-02-19T13:16:24;7.18;;;3.20;;
69047;SDS011;56119;50.118;8.642;2023-02-19T13:18:58;6.35;;;3.08;;
69047;SDS011;56119;50.118;8.642;2023-02-19T13:21:26;6.20;;;3.40;;
69047;SDS011;56119;50.118;8.642;2023-02-19T13:24:14;5.47;;;3.03;;
69047;SDS011;56119;50.118;8.642;2023-02-19T13:26:55;4.63;;;2.40;;
69047;SDS011;56119;50.118;8.642;2023-02-19T13:37:06;6.32;;;2.80;;
69047;SDS011;56119;50.118;8.642;2023-02-19T13:39:33;4.45;;;2.00;;
69047;SDS011;56119;50.118;8.642;2023-02-19T13:41:59;7.65;;;2.70;;
69047;SDS011;56119;50.118;8.642;2023-02-19T13:44:29;7.30;;;3.10;;
69047;SDS011;56119;50.118;8.642;2023-02-19T13:46:55;4.13;;;2.58;;
69047;SDS011;56119;50.118;8.642;2023-02-19T13:51:51;5.78;;;2.47;;
69047;SDS011;56119;50.118;8.642;2023-02-19T13:59:35;7.25;;;4.13;;
69047;SDS011;56119;50.118;8.642;2023-02-19T14:14:47;5.55;;;2.50;;
69047;SDS011;56119;50.118;8.642;2023-02-19T14:17:27;4.22;;;2.50;;
69047;SDS011;56119;50.118;8.642;2023-02-19T14:20:11;4.70;;;2.20;;
69047;SDS011;56119;50.118;8.642;2023-02-19T14:22:49;6.20;;;3.10;;
69047;SDS011;56119;50.118;8.642;2023-02-19T14:30:43;3.20;;;1.60;;
69047;SDS011;56119;50.118;8.642;2023-02-19T14:33:10;3.63;;;1.85;;
69047;SDS011;56119;50.118;8.642;2023-02-19T14:35:38;3.78;;;2.05;;
69047;SDS011;56119;50.118;8.642;2023-02-19T14:38:05;8.25;;;2.35;;
69047;SDS011;56119;50.118;8.642;2023-02-19T14:40:35;3.83;;;2.28;;
69047;SDS011;56119;50.118;8.642;2023-02-19T14:43:03;2.95;;;1.88;;
69047;SDS011;56119;50.118;8.642;2023-02-19T14:45:30;2.35;;;1.40;;
69047;SDS011;56119;50.118;8.642;2023-02-19T14:48:01;4.80;;;2.42;;
69047;SDS011;56119;50.118;8.642;2023-02-19T14:50:29;3.58;;;1.63;;
69047;SDS011;56119;50.118;8.642;2023-02-19T14:52:57;2.00;;;1.67;;
69047;SDS011;56119;50.118;8.642;2023-02-19T14:55:26;3.25;;;1.67;;
69047;SDS011;56119;50.118;8.642;2023-02-19T14:57:54;3.92;;;2.20;;
69047;SDS011;56119;50.118;8.642;2023-02-19T15:00:25;3.60;;;1.75;;
69047;SDS011;56119;50.118;8.642;2023-02-19T15:02:52;3.40;;;1.80;;
69047;SDS011;56119;50.118;8.642;2023-02-19T15:05:27;3.47;;;1.77;;
69047;SDS011;56119;50.118;8.642;2023-02-19T15:07:55;3.53;;;1.55;;
69047;SDS011;56119;50.118;8.642;2023-02-19T15:10:22;4.00;;;1.85;;
69047;SDS011;56119;50.118;8.642;2023-02-19T15:12:50;3.17;;;2.00;;
69047;SDS011;56119;50.118;8.642;2023-02-19T15:15:21;5.35;;;1.75;;
69047;SDS011;56119;50.118;8.642;2023-02-19T15:17:47;6.40;;;2.47;;
69047;SDS011;56119;50.118;8.642;2023-02-19T15:20:33;4.47;;;2.50;;
69047;SDS011;56119;50.118;8.642;2023-02-19T15:23:00;5.13;;;2.55;;
69047;SDS011;56119;50.118;8.642;2023-02-19T15:25:32;3.35;;;2.20;;
69047;SDS011;56119;50.118;8.642;2023-02-19T15:30:43;3.55;;;2.60;;
69047;SDS011;56119;50.118;8.642;2023-02-19T15:33:12;3.78;;;1.92;;
69047;SDS011;56119;50.118;8.642;2023-02-19T15:35:40;4.25;;;2.42;;
69047;SDS011;56119;50.118;8.642;2023-02-19T15:38:07;4.85;;;2.45;;
69047;SDS011;56119;50.118;8.642;2023-02-19T15:40:35;3.53;;;2.10;;
69047;SDS011;56119;50.118;8.642;2023-02-19T15:43:01;5.88;;;1.77;;
69047;SDS011;56119;50.118;8.642;2023-02-19T15:45:34;3.42;;;2.13;;
69047;SDS011;56119;50.118;8.642;2023-02-19T15:48:08;4.25;;;2.20;;
69047;SDS011;56119;50.118;8.642;2023-02-19T15:50:36;4.38;;;1.90;;
69047;SDS011;56119;50.118;8.642;2023-02-19T15:55:44;4.38;;;1.98;;
69047;SDS011;56119;50.118;8.642;2023-02-19T16:00:49;3.63;;;1.33;;
69047;SDS011;56119;50.118;8.642;2023-02-19T16:03:20;5.53;;;2.10;;
69047;SDS011;56119;50.118;8.642;2023-02-19T16:09:01;4.95;;;1.50;;
69047;SDS011;56119;50.118;8.642;2023-02-19T16:11:42;4.10;;;1.85;;
69047;SDS011;56119;50.118;8.642;2023-02-19T16:14:31;2.78;;;1.40;;
69047;SDS011;56119;50.118;8.642;2023-02-19T16:19:33;2.85;;;1.80;;
69047;SDS011;56119;50.118;8.642;2023-02-19T16:22:00;2.65;;;1.83;;
69047;SDS011;56119;50.118;8.642;2023-02-19T16:24:36;2.25;;;1.35;;
69047;SDS011;56119;50.118;8.642;2023-02-19T16:27:02;1.42;;;1.10;;
69047;SDS011;56119;50.118;8.642;2023-02-19T16:29:30;2.45;;;1.30;;
69047;SDS011;56119;50.118;8.642;2023-02-19T16:31:58;2.85;;;1.05;;
69047;SDS011;56119;50.118;8.642;2023-02-19T16:34:41;2.10;;;1.83;;
69047;SDS011;56119;50.118;8.642;2023-02-19T16:42:35;2.63;;;1.40;;
69047;SDS011;56119;50.118;8.642;2023-02-19T16:45:01;3.90;;;2.00;;
69047;SDS011;56119;50.118;8.642;2023-02-19T16:47:28;3.13;;;1.50;;
69047;SDS011;56119;50.118;8.642;2023-02-19T16:49:56;2.42;;;1.67;;
69047;SDS011;56119;50.118;8.642;2023-02-19T16:52:22;4.13;;;2.13;;
69047;SDS011;56119;50.118;8.642;2023-02-19T16:54:48;3.10;;;1.65;;
69047;SDS011;56119;50.118;8.642;2023-02-19T16:57:14;3.10;;;1.88;;
69047;SDS011;56119;50.118;8.642;2023-02-19T16:59:40;3.20;;;1.50;;
69047;SDS011;56119;50.118;8.642;2023-02-19T17:02:07;2.40;;;1.33;;
69047;SDS011;56119;50.118;8.642;2023-02-19T17:04:34;3.42;;;1.77;;
69047;SDS011;56119;50.118;8.642;2023-02-19T17:07:00;3.45;;;1.85;;
69047;SDS011;56119;50.118;8.642;2023-02-19T17:09:27;3.35;;;1.65;;
69047;SDS011;56119;50.118;8.642;2023-02-19T17:11:53;3.05;;;2.03;;
69047;SDS011;56119;50.118;8.642;2023-02-19T17:14:19;4.60;;;1.75;;
69047;SDS011;56119;50.118;8.642;2023-02-19T17:16:45;3.67;;;1.92;;
69047;SDS011;56119;50.118;8.642;2023-02-19T17:19:13;4.82;;;2.03;;
69047;SDS011;56119;50.118;8.642;2023-02-19T17:21:39;2.65;;;2.08;;